Data for 04/10/2009

Time Sea-Level Adjusted Pressure Absolute Pressure Temperature Relative Humidity Dew Point   
(mb) (inHg) (mb) (inHg) (C) (F) (%) (C) (F)
00:05 1012 29.88 841 24.83 3.6 38.4 89 1.8 35.3
00:10 1012 29.88 841 24.83 3.5 38.4 89 1.8 35.3
00:15 1012 29.88 841 24.83 3.5 38.3 89 1.9 35.4
00:20 1012 29.88 841 24.83 3.4 38.2 90 1.9 35.4
00:25 1012 29.88 841 24.83 3.4 38.1 89 1.7 35.1
00:30 1012 29.88 841 24.83 3.3 38 89 1.6 34.9
00:35 1012 29.88 841 24.83 3.3 37.9 88 1.5 34.7
00:40 1012 29.88 841 24.83 3.3 38 88 1.6 34.8
00:45 1012 29.88 841 24.83 3.3 37.9 89 1.7 35
00:50 1012 29.88 841 24.83 3.2 37.8 89 1.6 35
00:55 1012 29.88 841 24.83 3 37.4 91 1.6 35
01:00 1012 29.88 841 24.83 2.9 37.2 91 1.5 34.8
01:05 1012 29.88 841 24.83 2.7 36.9 91 1.4 34.5
01:10 1012 29.88 841 24.83 2.9 37.3 88 1.2 34.2
01:15 1012 29.88 841 24.83 3 37.4 89 1.4 34.6
01:20 1012 29.88 841 24.83 3 37.4 89 1.4 34.5
01:25 1012 29.88 841 24.83 3 37.4 89 1.4 34.5
01:30 1012 29.88 841 24.83 2.9 37.3 89 1.3 34.4
01:35 1012 29.88 841 24.83 3 37.3 89 1.3 34.3
01:40 1012 29.88 841 24.83 3.1 37.6 88 1.3 34.3
01:45 1012 29.88 841 24.83 2.9 37.2 89 1.2 34.2
01:50 1012 29.88 841 24.83 2.7 36.9 89 1.1 34
01:55 1012 29.88 841 24.83 2.6 36.8 89 1.1 33.9
02:00 1012 29.88 841 24.83 2.7 36.9 89 1 33.9
02:05 1012 29.88 841 24.83 2.7 36.8 90 1.2 34.1
02:10 1012 29.88 841 24.83 2.7 36.8 89 1.1 33.9
02:15 1012 29.88 841 24.83 2.5 36.4 90 1 33.9
02:20 1012 29.88 841 24.83 2.1 35.9 91 0.9 33.5
02:25 1012 29.88 841 24.83 2.1 35.7 91 0.8 33.4
02:30 1012 29.88 841 24.83 2.3 36.1 89 0.7 33.3
02:35 1012 29.88 841 24.83 2.5 36.5 89 0.8 33.5
02:40 1012 29.88 841 24.83 2.5 36.5 89 0.9 33.6
02:45 1012 29.88 841 24.83 2.4 36.3 89 0.7 33.3
02:50 1012 29.88 841 24.83 2.5 36.6 88 0.8 33.4
02:55 1012 29.88 841 24.83 2.5 36.5 88 0.7 33.3
03:00 1012 29.88 841 24.83 2.4 36.3 88 0.7 33.2
03:05 1012 29.88 841 24.83 2.4 36.2 88 0.6 33.1
03:10 1012 29.88 841 24.83 2.4 36.2 88 0.6 33.1
03:15 1012 29.88 841 24.83 2.2 36 89 0.6 33.1
03:20 1012 29.88 841 24.83 2.1 35.7 90 0.6 33
03:25 1012 29.88 841 24.83 1.9 35.3 91 0.5 32.9
03:30 1012 29.88 841 24.83 1.7 35.1 91 0.3 32.6
03:35 1012 29.88 841 24.83 1.6 34.9 91 0.2 32.4
03:40 1012 29.88 841 24.83 1.6 34.9 90 0.1 32.3
03:45 1012 29.88 841 24.83 1.6 34.9 90 0.2 32.4
03:50 1012 29.88 841 24.83 1.6 34.9 91 0.3 32.6
03:55 1012 29.88 841 24.83 1.8 35.2 90 0.3 32.6
04:00 1012 29.88 841 24.83 1.8 35.2 89 0.2 32.4
04:05 1012 29.88 841 24.83 1.6 34.8 90 0 32.1
04:10 1012 29.88 841 24.83 1.5 34.6 90 0.1 32.1
04:15 1012 29.88 841 24.83 1.7 35 89 0 32.1
04:20 1012 29.88 841 24.83 1.5 34.8 89 -0.1 31.9
04:25 1012 29.88 841 24.83 1.7 35.1 88 0 32
04:30 1012 29.88 841 24.83 1.6 34.9 89 -0 32
04:35 1012 29.88 841 24.83 1.6 35 88 -0.1 31.8
04:40 1012 29.88 841 24.83 1.4 34.6 90 -0.1 31.9
04:45 1012 29.88 841 24.83 1.3 34.4 90 -0.1 31.7
04:50 1012 29.88 841 24.83 1.3 34.4 90 -0.1 31.8
04:55 1012 29.88 841 24.83 1.2 34.2 90 -0.2 31.6
05:00 1012 29.88 841 24.83 1.2 34.2 90 -0.2 31.6
05:05 1012 29.88 841 24.83 1.2 34.1 91 -0.1 31.8
05:10 1012 29.88 841 24.83 1.1 34 90 -0.3 31.5
05:15 1012 29.88 841 24.83 1.1 34.1 90 -0.3 31.5
05:20 1012 29.88 841 24.83 1 33.8 91 -0.3 31.5
05:25 1012 29.88 841 24.83 1 33.8 91 -0.3 31.4
05:30 1012 29.88 841 24.83 1 33.9 91 -0.3 31.5
05:35 1012 29.88 841 24.83 1.2 34.1 90 -0.3 31.5
05:40 1012 29.88 841 24.83 1.1 34 90 -0.4 31.3
05:45 1012 29.88 841 24.83 1.1 33.9 90 -0.4 31.3
05:50 1012 29.88 841 24.83 1 33.8 90 -0.4 31.2
05:55 1012 29.88 841 24.83 1.2 34.2 89 -0.5 31.2
06:00 1012 29.88 841 24.83 1.4 34.5 89 -0.3 31.5
06:05 1012 29.88 841 24.83 1.4 34.5 89 -0.3 31.5
06:10 1012 29.88 841 24.83 1.4 34.5 88 -0.3 31.4
06:15 1012 29.88 841 24.83 1.3 34.3 89 -0.3 31.4
06:20 1012 29.88 841 24.83 1.3 34.4 89 -0.3 31.4
06:25 1012 29.88 841 24.83 1.3 34.3 89 -0.3 31.5
06:30 1012 29.88 841 24.83 1.3 34.3 89 -0.3 31.4
06:35 1012 29.88 841 24.83 1.3 34.4 88 -0.4 31.2
06:40 1012 29.88 841 24.83 1.4 34.6 88 -0.3 31.4
06:45 1012 29.88 841 24.83 1.5 34.8 88 -0.3 31.5
06:50 1012 29.88 841 24.83 1.7 35 86 -0.4 31.2
06:55 1012 29.88 841 24.83 2 35.5 85 -0.3 31.5
07:00 1012 29.88 841 24.83 2.1 35.7 85 -0.2 31.7
07:05 1012 29.88 841 24.83 2.3 36.1 84 -0.1 31.8
07:10 1012 29.88 841 24.83 2.5 36.5 83 -0.1 31.8
07:15 1012 29.88 841 24.83 2.7 36.8 83 0.1 32.2
07:20 1012 29.88 841 24.83 2.5 36.6 84 0.1 32.1
07:25 1012 29.88 841 24.83 2.3 36.1 85 -0 32
07:30 1012 29.88 841 24.83 2.4 36.3 83 -0.3 31.5
07:35 1012 29.88 841 24.83 2.1 35.7 85 -0.2 31.7
07:40 1012 29.88 841 24.83 1.7 35.1 86 -0.4 31.3
07:45 1012 29.88 841 24.83 1.8 35.2 86 -0.4 31.3
07:50 1012 29.88 841 24.83 1.9 35.3 86 -0.3 31.5
07:55 1012 29.88 841 24.83 1.9 35.3 86 -0.2 31.6
08:00 1012 29.88 842 24.86 1.9 35.4 86 -0.2 31.7
08:05 1012 29.88 842 24.86 2 35.5 86 -0.1 31.8
08:10 1012 29.88 842 24.86 2.1 35.7 84 -0.3 31.5
08:15 1012 29.88 842 24.86 2.2 36 85 -0.1 31.8
08:20 1012 29.88 842 24.86 2.3 36.1 84 -0.1 31.7
08:25 1013 29.91 842 24.86 2.5 36.4 83 -0.1 31.8
08:30 1013 29.91 842 24.86 2.9 37.2 81 -0.1 31.9
08:35 1013 29.91 842 24.86 3.2 37.8 82 0.4 32.8
08:40 1013 29.91 842 24.86 3.5 38.3 80 0.4 32.8
08:45 1013 29.91 842 24.86 3.5 38.3 81 0.5 33
08:50 1013 29.91 842 24.86 3.5 38.2 81 0.5 32.8
08:55 1013 29.91 842 24.86 3.5 38.3 80 0.4 32.7
09:00 1013 29.91 842 24.86 3.9 39 79 0.5 33
09:05 1013 29.91 842 24.86 4.1 39.4 77 0.4 32.8
09:10 1013 29.91 842 24.86 4.1 39.3 76 0.3 32.5
09:15 1013 29.91 842 24.86 3.9 39.1 78 0.4 32.7
09:20 1013 29.91 842 24.86 4.1 39.4 79 0.7 33.3
09:25 1013 29.91 842 24.86 4.7 40.4 76 0.8 33.4
09:30 1013 29.91 842 24.86 5 41 74 0.8 33.5
09:35 1013 29.91 842 24.86 5.1 41.2 72 0.5 32.9
09:40 1013 29.91 842 24.86 5.4 41.8 72 0.7 33.3
09:45 1013 29.91 842 24.86 5.8 42.5 72 1.2 34.2
09:50 1013 29.91 842 24.86 6.7 44.1 69 1.4 34.4
09:55 1013 29.91 842 24.86 6.6 43.8 67 1 33.8
10:00 1013 29.91 842 24.86 6.8 44.2 70 1.8 35.2
10:05 1013 29.91 842 24.86 7.3 45.1 68 1.7 35.1
10:10 1013 29.91 842 24.86 8.1 46.5 66 2.2 36
10:15 1013 29.91 842 24.86 8 46.4 70 3 37.3
10:20 1013 29.91 842 24.86 7.7 45.8 67 2 35.6
10:25 1013 29.91 842 24.86 7.3 45.2 66 1.5 34.7
10:30 1013 29.91 842 24.86 7.8 46 66 1.7 35.1
10:35 1013 29.91 842 24.86 8.7 47.7 61 1.7 35
10:40 1013 29.91 842 24.86 9.3 48.7 60 2.1 35.7
10:45 1013 29.91 842 24.86 9.5 49.1 57 1.5 34.7
10:50 1013 29.91 842 24.86 9.7 49.4 55 1.2 34.2
10:55 1013 29.91 842 24.86 9.4 48.9 54 0.7 33.2
11:00 1013 29.91 842 24.86 9.3 48.8 56 1 33.8
11:05 1013 29.91 842 24.86 9.3 48.8 55 0.8 33.5
11:10 1013 29.91 842 24.86 9.6 49.2 55 1 33.8
11:15 1013 29.91 842 24.86 10.3 50.5 50 0.5 32.8
11:20 1013 29.91 842 24.86 10.9 51.7 51 1.4 34.4
11:25 1013 29.91 842 24.86 10.7 51.2 51 1 33.9
11:30 1013 29.91 842 24.86 10.5 50.8 50 0.5 32.8
11:35 1013 29.91 842 24.86 9.9 49.7 51 0.3 32.6
11:40 1013 29.91 842 24.86 10.9 51.6 51 1.3 34.3
11:45 1013 29.91 842 24.86 10.3 50.6 54 1.5 34.6
11:50 1013 29.91 842 24.86 10.2 50.4 53 1 33.8
11:55 1013 29.91 842 24.86 10.9 51.6 52 1.5 34.7
12:00 1012 29.88 842 24.86 11.6 52.8 47 0.8 33.4
12:05 1013 29.91 842 24.86 11 51.8 52 1.5 34.6
12:10 1013 29.91 842 24.86 10.4 50.8 53 1.2 34.2
12:15 1012 29.88 842 24.86 11.4 52.6 46 0.2 32.4
12:20 1012 29.88 842 24.86 11.5 52.7 47 0.6 33
12:25 1012 29.88 842 24.86 12.4 54.3 43 0.4 32.7
12:30 1012 29.88 842 24.86 12.2 54 45 0.7 33.2
12:35 1012 29.88 842 24.86 11.4 52.5 45 -0.2 31.7
12:40 1012 29.88 842 24.86 13 55.3 43 0.8 33.5
12:45 1012 29.88 841 24.83 13.3 55.9 40 0 32
12:50 1012 29.88 841 24.83 13 55.3 43 0.7 33.2
12:55 1012 29.88 841 24.83 12.4 54.3 46 1 33.9
13:00 1012 29.88 841 24.83 12.2 53.9 43 -0.1 31.9
13:05 1012 29.88 841 24.83 12.4 54.2 42 -0.1 31.8
13:10 1012 29.88 841 24.83 13.5 56.3 38 -0.4 31.3
13:15 1012 29.88 841 24.83 13.3 56 40 0 32
13:20 1012 29.88 841 24.83 13.8 56.9 39 0 32
13:25 1012 29.88 841 24.83 13 55.5 38 -0.7 30.7
13:30 1012 29.88 841 24.83 12.7 54.9 40 -0.5 31.2
13:35 1012 29.88 841 24.83 12.8 55 38 -1.3 29.7
13:40 1012 29.88 841 24.83 13.6 56.5 39 -0.2 31.7
13:45 1012 29.88 841 24.83 13 55.4 36 -1.5 29.2
13:50 1012 29.88 841 24.83 13.4 56 38 -0.5 31.1
13:55 1012 29.88 841 24.83 13.2 55.8 35 -1.7 28.9
14:00 1012 29.88 841 24.83 13.8 56.8 33 -1.9 28.5
14:05 1012 29.88 841 24.83 13.8 56.8 34 -1.7 28.9
14:10 1012 29.88 841 24.83 13.7 56.7 33 -2.3 27.9
14:15 1012 29.88 841 24.83 14.6 58.3 33 -1.4 29.5
14:20 1011 29.85 841 24.83 14.5 58.2 33 -1.4 29.5
14:25 1012 29.88 841 24.83 14.4 57.8 32 -1.9 28.6
14:30 1012 29.88 841 24.83 13.7 56.7 34 -1.8 28.8
14:35 1012 29.88 841 24.83 13.7 56.6 33 -2.2 28.1
14:40 1011 29.85 841 24.83 13.3 55.9 34 -2.4 27.7
14:45 1011 29.85 841 24.83 13.8 56.8 32 -2.5 27.6
14:50 1011 29.85 841 24.83 13.9 56.9 34 -1.7 28.9
14:55 1011 29.85 841 24.83 13.7 56.7 34 -1.8 28.7
15:00 1011 29.85 841 24.83 14 57.2 33 -2 28.5
15:05 1011 29.85 841 24.83 13.8 56.8 34 -1.8 28.7
15:10 1011 29.85 840 24.81 14 57.3 32 -2.3 27.9
15:15 1011 29.85 840 24.81 13.6 56.5 33 -2.2 28.1
15:20 1011 29.85 840 24.81 14.7 58.5 31 -2.1 28.1
15:25 1011 29.85 840 24.81 14.7 58.4 32 -1.9 28.5
15:30 1011 29.85 840 24.81 13.6 56.6 32 -2.7 27.1
15:35 1011 29.85 840 24.81 14.3 57.7 31 -2.6 27.3
15:40 1011 29.85 840 24.81 13.8 56.8 33 -2.1 28.1
15:45 1011 29.85 840 24.81 13.7 56.6 32 -2.5 27.5
15:50 1011 29.85 840 24.81 14 57.2 31 -2.8 27
15:55 1011 29.85 840 24.81 14.5 58.1 32 -2.1 28.3
16:00 1011 29.85 840 24.81 13.4 56 34 -2.1 28.3
16:05 1011 29.85 840 24.81 13.3 55.9 33 -2.7 27.2
16:10 1011 29.85 840 24.81 13.3 55.9 34 -2 28.4
16:15 1011 29.85 840 24.81 13.1 55.5 35 -2.1 28.3
16:20 1011 29.85 840 24.81 12.9 55.1 34 -2.4 27.7
16:25 1011 29.85 840 24.81 12.9 55.1 35 -2 28.3
16:30 1011 29.85 840 24.81 12.8 55 38 -1.1 30.1
16:35 1011 29.85 840 24.81 12.8 55 40 -0.5 31.1
16:40 1011 29.85 840 24.81 12.9 55.2 36 -1.9 28.6
16:45 1011 29.85 840 24.81 13.3 55.9 35 -1.7 28.9
16:50 1011 29.85 840 24.81 12.7 54.9 35 -2.2 28.1
16:55 1011 29.85 840 24.81 12.9 55.2 37 -1.2 29.8
17:00 1011 29.85 840 24.81 12.7 54.8 37 -1.5 29.3
17:05 1011 29.85 840 24.81 12.4 54.3 40 -0.7 30.7
17:10 1011 29.85 840 24.81 12.2 53.9 39 -1.3 29.6
17:15 1011 29.85 840 24.81 12.5 54.6 39 -1.1 30
17:20 1011 29.85 840 24.81 12.1 53.8 41 -0.7 30.7
17:25 1011 29.85 840 24.81 11.8 53.2 43 -0.5 31.1
17:30 1011 29.85 840 24.81 12 53.6 42 -0.3 31.4
17:35 1011 29.85 840 24.81 11.7 53.1 41 -1 30.1
17:40 1011 29.85 840 24.81 11.4 52.6 44 -0.5 31.1
17:45 1011 29.85 840 24.81 11.5 52.6 43 -0.6 31
17:50 1011 29.85 840 24.81 11.4 52.6 44 -0.3 31.4
17:55 1011 29.85 840 24.81 11.5 52.7 42 -0.8 30.5
18:00 1011 29.85 840 24.81 11.8 53.2 43 -0.5 31.1
18:05 1011 29.85 840 24.81 11.8 53.3 42 -0.6 31
18:10 1011 29.85 840 24.81 12 53.6 44 0.1 32.2
18:15 1011 29.85 840 24.81 11.8 53.2 44 -0 31.9
18:20 1011 29.85 840 24.81 12 53.6 45 0.6 33
18:25 1011 29.85 840 24.81 11.7 53 45 0.2 32.4
18:30 1011 29.85 840 24.81 11.3 52.4 49 1.1 33.9
18:35 1011 29.85 840 24.81 11 51.8 50 0.9 33.7
18:40 1011 29.85 840 24.81 11 51.8 50 1 33.8
18:45 1011 29.85 840 24.81 11.1 51.9 50 1 33.8
18:50 1011 29.85 840 24.81 10.8 51.5 50 1 33.7
18:55 1011 29.85 840 24.81 10.7 51.2 51 1.1 34
19:00 1011 29.85 840 24.81 10.6 51 51 0.9 33.6
19:05 1011 29.85 840 24.81 10.4 50.6 51 0.8 33.5
19:10 1011 29.85 840 24.81 10.2 50.4 52 1 33.7
19:15 1011 29.85 840 24.81 10.2 50.3 52 0.8 33.4
19:20 1011 29.85 840 24.81 10.2 50.4 51 0.5 32.9
19:25 1011 29.85 840 24.81 10.3 50.6 48 -0.2 31.7
19:30 1011 29.85 840 24.81 10.3 50.5 50 0.4 32.7
19:35 1011 29.85 840 24.81 9.9 49.9 51 0.3 32.6
19:40 1011 29.85 840 24.81 9.8 49.6 52 0.5 32.9
19:45 1011 29.85 840 24.81 9.6 49.3 53 0.5 32.9
19:50 1011 29.85 840 24.81 9.6 49.3 53 0.4 32.8
19:55 1011 29.85 840 24.81 9.6 49.3 53 0.5 32.9
20:00 1011 29.85 840 24.81 9.6 49.3 53 0.5 33
20:05 1011 29.85 840 24.81 9.5 49.2 54 0.8 33.5
20:10 1011 29.85 840 24.81 9.5 49 55 0.8 33.5
20:15 1011 29.85 840 24.81 9.1 48.3 60 1.7 35.1
20:20 1011 29.85 840 24.81 8.5 47.3 63 1.8 35.3
20:25 1011 29.85 840 24.81 8.3 47 64 1.9 35.4
20:30 1011 29.85 840 24.81 8.1 46.6 65 2 35.6
20:35 1011 29.85 840 24.81 8 46.4 65 1.8 35.2
20:40 1011 29.85 840 24.81 7.9 46.3 65 1.7 35.1
20:45 1011 29.85 840 24.81 7.9 46.3 65 1.8 35.3
20:50 1011 29.85 840 24.81 7.8 46 66 1.9 35.4
20:55 1011 29.85 840 24.81 7.7 45.8 66 1.7 35.1
21:00 1011 29.85 840 24.81 7.6 45.7 67 1.9 35.4
21:05 1011 29.85 840 24.81 7.5 45.5 68 2 35.6
21:10 1011 29.85 840 24.81 7.3 45.2 70 2.2 36
21:15 1011 29.85 840 24.81 7.2 44.9 70 2 35.7
21:20 1011 29.85 840 24.81 7.1 44.8 70 2.1 35.8
21:25 1011 29.85 840 24.81 7.1 44.7 70 2 35.6
21:30 1011 29.85 840 24.81 7.1 44.8 69 1.9 35.4
21:35 1011 29.85 840 24.81 7.1 44.8 69 1.8 35.2
21:40 1011 29.85 841 24.83 7.1 44.8 69 1.8 35.2
21:45 1011 29.85 841 24.83 7.2 44.9 68 1.7 35.1
21:50 1011 29.85 841 24.83 7.2 44.9 68 1.6 35
21:55 1011 29.85 841 24.83 7.2 45 68 1.6 34.9
22:00 1011 29.85 841 24.83 7.2 45 68 1.6 35
22:05 1011 29.85 841 24.83 7.1 44.9 68 1.6 34.9
22:10 1012 29.88 841 24.83 7.1 44.7 68 1.7 35
22:15 1012 29.88 841 24.83 6.9 44.4 69 1.7 35
22:20 1012 29.88 841 24.83 6.5 43.8 70 1.5 34.7
22:25 1012 29.88 841 24.83 6.2 43.2 70 1.1 34
22:30 1012 29.88 841 24.83 6.1 43.1 67 0.5 32.9
22:35 1011 29.85 841 24.83 6.2 43.2 67 0.5 32.9
22:40 1011 29.85 841 24.83 6.2 43.2 68 0.9 33.6
22:45 1011 29.85 841 24.83 6.3 43.3 69 1 33.8
22:50 1011 29.85 841 24.83 6.2 43.2 70 1.1 34
22:55 1011 29.85 841 24.83 6 42.9 69 0.8 33.4
23:00 1011 29.85 841 24.83 5.9 42.7 69 0.7 33.3
23:05 1011 29.85 841 24.83 5.9 42.7 67 0.4 32.7
23:10 1011 29.85 841 24.83 6.2 43.2 67 0.5 33
23:15 1012 29.88 841 24.83 6.2 43.1 68 0.6 33.1
23:20 1012 29.88 841 24.83 6.1 43 67 0.4 32.7
23:25 1012 29.88 841 24.83 6.1 43.1 65 0 32.1
23:30 1012 29.88 841 24.83 6 42.8 65 0 32.1
23:35 1012 29.88 841 24.83 6.1 42.9 65 0 32.1
23:40 1012 29.88 841 24.83 6.2 43.1 65 0.1 32.2
23:45 1012 29.88 841 24.83 6.2 43.1 63 -0.3 31.4
23:50 1012 29.88 841 24.83 6.4 43.6 64 0.2 32.3
23:55 1012 29.88 841 24.83 6 42.8 62 -0.7 30.7
24:00 1012 29.88 841 24.83 6.5 43.7 60 -0.8 30.5